Versailles, Indiana
Current Conditions -  °F | °C
As of 7:53 AM on Sunday 21 Dec 2014 (Local Time) from KIMS Reporting Station
Overcast Overcast  
Wind Chill: 26°   Ceiling: 1400
Heat Index: 32°   Visibility: 7mi
Dew Point: 27°   Wind: 6mph
Humidity: 80%   Direction: 100°E
Pressure: 30.3"   Gusts: NA
Location:  39.07°N, 85.25°W
Report Text: KIMS 211253Z AUTO 10005KT 7SM OVC014 00/M03 A3030 RMK AO1
Loading
Personal Weather Stations






























Interactive Weather Map New forecast layout! Learn more

10-Day Weather Forecast

Advertisements
Track Severe Weather on mobile